sensor_id;sensor_type;location;lat;lon;timestamp;temperature;humidity
57843;DHT22;43673;51.058;3.734;2023-12-04T00:01:35;4.30;99.90
57843;DHT22;43673;51.058;3.734;2023-12-04T00:04:01;4.10;99.90
57843;DHT22;43673;51.058;3.734;2023-12-04T00:06:27;4.00;99.90
57843;DHT22;43673;51.058;3.734;2023-12-04T00:08:53;4.00;99.90
57843;DHT22;43673;51.058;3.734;2023-12-04T00:11:18;4.00;99.90
57843;DHT22;43673;51.058;3.734;2023-12-04T00:13:44;4.00;99.90
57843;DHT22;43673;51.058;3.734;2023-12-04T00:16:10;4.00;99.90
57843;DHT22;43673;51.058;3.734;2023-12-04T00:18:35;4.20;99.90
57843;DHT22;43673;51.058;3.734;2023-12-04T00:21:01;4.00;99.90
57843;DHT22;43673;51.058;3.734;2023-12-04T00:23:27;4.00;99.90
57843;DHT22;43673;51.058;3.734;2023-12-04T00:25:54;4.00;99.90
57843;DHT22;43673;51.058;3.734;2023-12-04T00:28:20;3.90;99.90
57843;DHT22;43673;51.058;3.734;2023-12-04T00:30:46;3.90;99.90
57843;DHT22;43673;51.058;3.734;2023-12-04T00:33:12;3.90;99.90
57843;DHT22;43673;51.058;3.734;2023-12-04T00:35:38;4.00;99.90
57843;DHT22;43673;51.058;3.734;2023-12-04T00:38:03;4.10;99.90
57843;DHT22;43673;51.058;3.734;2023-12-04T00:40:29;4.00;99.90
57843;DHT22;43673;51.058;3.734;2023-12-04T00:42:55;4.00;99.90
57843;DHT22;43673;51.058;3.734;2023-12-04T00:45:20;3.80;99.90
57843;DHT22;43673;51.058;3.734;2023-12-04T00:47:46;3.80;99.90
57843;DHT22;43673;51.058;3.734;2023-12-04T00:50:12;3.90;99.90
57843;DHT22;43673;51.058;3.734;2023-12-04T00:52:37;3.90;99.90
57843;DHT22;43673;51.058;3.734;2023-12-04T00:55:03;3.80;99.90
57843;DHT22;43673;51.058;3.734;2023-12-04T00:57:29;3.90;99.90
57843;DHT22;43673;51.058;3.734;2023-12-04T00:59:58;3.90;99.90
57843;DHT22;43673;51.058;3.734;2023-12-04T01:02:24;3.90;99.90
57843;DHT22;43673;51.058;3.734;2023-12-04T01:04:50;3.90;99.90
57843;DHT22;43673;51.058;3.734;2023-12-04T01:07:16;4.00;99.90
57843;DHT22;43673;51.058;3.734;2023-12-04T01:09:41;4.00;99.90
57843;DHT22;43673;51.058;3.734;2023-12-04T01:12:07;4.10;99.90
57843;DHT22;43673;51.058;3.734;2023-12-04T01:14:33;4.00;99.90
57843;DHT22;43673;51.058;3.734;2023-12-04T01:16:58;4.20;99.90
57843;DHT22;43673;51.058;3.734;2023-12-04T01:19:24;3.90;99.90
57843;DHT22;43673;51.058;3.734;2023-12-04T01:21:50;4.00;99.90
57843;DHT22;43673;51.058;3.734;2023-12-04T01:24:15;4.20;99.90
57843;DHT22;43673;51.058;3.734;2023-12-04T01:26:41;4.00;99.90
57843;DHT22;43673;51.058;3.734;2023-12-04T01:29:07;4.10;99.90
57843;DHT22;43673;51.058;3.734;2023-12-04T01:31:33;4.10;99.90
57843;DHT22;43673;51.058;3.734;2023-12-04T01:33:59;4.20;99.90
57843;DHT22;43673;51.058;3.734;2023-12-04T01:36:24;4.10;99.90
57843;DHT22;43673;51.058;3.734;2023-12-04T01:38:50;4.20;99.90
57843;DHT22;43673;51.058;3.734;2023-12-04T01:41:16;4.30;99.90
57843;DHT22;43673;51.058;3.734;2023-12-04T01:43:42;4.10;99.90
57843;DHT22;43673;51.058;3.734;2023-12-04T01:46:07;4.20;99.90
57843;DHT22;43673;51.058;3.734;2023-12-04T01:48:33;4.20;99.90
57843;DHT22;43673;51.058;3.734;2023-12-04T01:51:00;4.20;99.90
57843;DHT22;43673;51.058;3.734;2023-12-04T01:53:27;4.40;99.90
57843;DHT22;43673;51.058;3.734;2023-12-04T01:55:53;4.20;99.90
57843;DHT22;43673;51.058;3.734;2023-12-04T01:58:19;4.20;99.90
57843;DHT22;43673;51.058;3.734;2023-12-04T02:00:46;4.10;99.90
57843;DHT22;43673;51.058;3.734;2023-12-04T02:03:11;4.20;99.90
57843;DHT22;43673;51.058;3.734;2023-12-04T02:05:37;4.30;99.90
57843;DHT22;43673;51.058;3.734;2023-12-04T02:08:04;4.20;99.90
57843;DHT22;43673;51.058;3.734;2023-12-04T02:10:30;4.20;99.90
57843;DHT22;43673;51.058;3.734;2023-12-04T02:12:56;4.10;99.90
57843;DHT22;43673;51.058;3.734;2023-12-04T02:15:22;4.20;99.90
57843;DHT22;43673;51.058;3.734;2023-12-04T02:17:48;4.20;99.90
57843;DHT22;43673;51.058;3.734;2023-12-04T02:20:14;4.20;99.90
57843;DHT22;43673;51.058;3.734;2023-12-04T02:22:40;4.10;99.90
57843;DHT22;43673;51.058;3.734;2023-12-04T02:25:07;4.10;99.90
57843;DHT22;43673;51.058;3.734;2023-12-04T02:28:01;4.00;99.90
57843;DHT22;43673;51.058;3.734;2023-12-04T02:30:28;3.90;99.90
57843;DHT22;43673;51.058;3.734;2023-12-04T02:32:57;4.00;99.90
57843;DHT22;43673;51.058;3.734;2023-12-04T02:35:26;4.00;99.90
57843;DHT22;43673;51.058;3.734;2023-12-04T02:37:56;4.00;99.90
57843;DHT22;43673;51.058;3.734;2023-12-04T02:40:24;4.00;99.90
57843;DHT22;43673;51.058;3.734;2023-12-04T02:42:49;4.10;99.90
57843;DHT22;43673;51.058;3.734;2023-12-04T02:45:15;4.00;99.90
57843;DHT22;43673;51.058;3.734;2023-12-04T02:47:41;4.00;99.90
57843;DHT22;43673;51.058;3.734;2023-12-04T02:50:07;4.10;99.90
57843;DHT22;43673;51.058;3.734;2023-12-04T02:52:33;4.00;99.90
57843;DHT22;43673;51.058;3.734;2023-12-04T02:54:58;4.10;99.90
57843;DHT22;43673;51.058;3.734;2023-12-04T02:57:24;4.30;99.90
57843;DHT22;43673;51.058;3.734;2023-12-04T02:59:50;4.00;99.90
57843;DHT22;43673;51.058;3.734;2023-12-04T03:02:16;4.10;99.90
57843;DHT22;43673;51.058;3.734;2023-12-04T03:04:42;4.30;99.90
57843;DHT22;43673;51.058;3.734;2023-12-04T03:07:07;4.10;99.90
57843;DHT22;43673;51.058;3.734;2023-12-04T03:09:33;4.00;99.90
57843;DHT22;43673;51.058;3.734;2023-12-04T03:11:58;4.00;99.90
57843;DHT22;43673;51.058;3.734;2023-12-04T03:14:24;4.20;99.90
57843;DHT22;43673;51.058;3.734;2023-12-04T03:16:50;3.90;99.90
57843;DHT22;43673;51.058;3.734;2023-12-04T03:19:16;3.90;99.90
57843;DHT22;43673;51.058;3.734;2023-12-04T03:21:42;3.80;99.90
57843;DHT22;43673;51.058;3.734;2023-12-04T03:24:07;3.90;99.90
57843;DHT22;43673;51.058;3.734;2023-12-04T03:26:33;3.90;99.90
57843;DHT22;43673;51.058;3.734;2023-12-04T03:28:59;3.90;99.90
57843;DHT22;43673;51.058;3.734;2023-12-04T03:31:25;4.00;99.90
57843;DHT22;43673;51.058;3.734;2023-12-04T03:33:51;3.90;99.90
57843;DHT22;43673;51.058;3.734;2023-12-04T03:36:16;3.80;99.90
57843;DHT22;43673;51.058;3.734;2023-12-04T03:38:42;4.10;99.90
57843;DHT22;43673;51.058;3.734;2023-12-04T03:41:14;3.90;99.90
57843;DHT22;43673;51.058;3.734;2023-12-04T03:43:41;4.00;99.90
57843;DHT22;43673;51.058;3.734;2023-12-04T03:46:06;4.00;99.90
57843;DHT22;43673;51.058;3.734;2023-12-04T03:48:32;4.10;99.90
57843;DHT22;43673;51.058;3.734;2023-12-04T03:51:00;3.90;99.90
57843;DHT22;43673;51.058;3.734;2023-12-04T03:53:26;3.90;99.90
57843;DHT22;43673;51.058;3.734;2023-12-04T03:55:52;4.10;99.90
57843;DHT22;43673;51.058;3.734;2023-12-04T04:00:47;4.10;99.90
57843;DHT22;43673;51.058;3.734;2023-12-04T04:03:13;4.10;99.90
57843;DHT22;43673;51.058;3.734;2023-12-04T04:05:38;4.00;99.90
57843;DHT22;43673;51.058;3.734;2023-12-04T04:08:04;4.10;99.90
57843;DHT22;43673;51.058;3.734;2023-12-04T04:10:33;4.20;99.90
57843;DHT22;43673;51.058;3.734;2023-12-04T04:12:59;4.30;99.90
57843;DHT22;43673;51.058;3.734;2023-12-04T04:15:25;4.40;99.90
57843;DHT22;43673;51.058;3.734;2023-12-04T04:17:52;4.30;99.90
57843;DHT22;43673;51.058;3.734;2023-12-04T04:20:17;4.40;99.90
57843;DHT22;43673;51.058;3.734;2023-12-04T04:22:43;4.50;99.90
57843;DHT22;43673;51.058;3.734;2023-12-04T04:25:09;4.60;99.90
57843;DHT22;43673;51.058;3.734;2023-12-04T04:27:35;4.50;99.90
57843;DHT22;43673;51.058;3.734;2023-12-04T04:30:02;4.50;99.90
57843;DHT22;43673;51.058;3.734;2023-12-04T04:32:27;4.50;99.90
57843;DHT22;43673;51.058;3.734;2023-12-04T04:34:53;4.50;99.90
57843;DHT22;43673;51.058;3.734;2023-12-04T04:37:19;4.60;99.90
57843;DHT22;43673;51.058;3.734;2023-12-04T04:39:45;4.60;99.90
57843;DHT22;43673;51.058;3.734;2023-12-04T04:42:11;4.80;99.90
57843;DHT22;43673;51.058;3.734;2023-12-04T04:44:37;4.60;99.90
57843;DHT22;43673;51.058;3.734;2023-12-04T04:47:03;4.70;99.90
57843;DHT22;43673;51.058;3.734;2023-12-04T04:49:29;4.60;99.90
57843;DHT22;43673;51.058;3.734;2023-12-04T04:51:54;4.70;99.90
57843;DHT22;43673;51.058;3.734;2023-12-04T04:54:20;4.80;99.90
57843;DHT22;43673;51.058;3.734;2023-12-04T04:56:45;4.70;99.90
57843;DHT22;43673;51.058;3.734;2023-12-04T04:59:11;4.70;99.90
57843;DHT22;43673;51.058;3.734;2023-12-04T05:01:37;4.70;99.90
57843;DHT22;43673;51.058;3.734;2023-12-04T05:04:03;4.70;99.90
57843;DHT22;43673;51.058;3.734;2023-12-04T05:06:29;4.60;99.90
57843;DHT22;43673;51.058;3.734;2023-12-04T05:08:55;4.70;99.90
57843;DHT22;43673;51.058;3.734;2023-12-04T05:11:21;4.90;99.90
57843;DHT22;43673;51.058;3.734;2023-12-04T05:13:46;4.80;99.90
57843;DHT22;43673;51.058;3.734;2023-12-04T05:16:12;4.80;99.90
57843;DHT22;43673;51.058;3.734;2023-12-04T05:18:38;4.80;99.90
57843;DHT22;43673;51.058;3.734;2023-12-04T05:21:11;4.70;99.90
57843;DHT22;43673;51.058;3.734;2023-12-04T05:23:37;4.80;99.90
57843;DHT22;43673;51.058;3.734;2023-12-04T05:26:04;4.70;99.90
57843;DHT22;43673;51.058;3.734;2023-12-04T05:28:30;4.60;99.90
57843;DHT22;43673;51.058;3.734;2023-12-04T05:30:55;4.60;99.90
57843;DHT22;43673;51.058;3.734;2023-12-04T05:33:21;4.60;99.90
57843;DHT22;43673;51.058;3.734;2023-12-04T05:35:50;4.60;99.90
57843;DHT22;43673;51.058;3.734;2023-12-04T05:38:19;4.60;99.90
57843;DHT22;43673;51.058;3.734;2023-12-04T05:40:45;4.70;99.90
57843;DHT22;43673;51.058;3.734;2023-12-04T05:43:11;4.80;99.90
57843;DHT22;43673;51.058;3.734;2023-12-04T05:45:36;4.80;99.90
57843;DHT22;43673;51.058;3.734;2023-12-04T05:48:02;4.80;99.90
57843;DHT22;43673;51.058;3.734;2023-12-04T05:50:28;4.80;99.90
57843;DHT22;43673;51.058;3.734;2023-12-04T05:52:54;4.80;99.90
57843;DHT22;43673;51.058;3.734;2023-12-04T05:55:19;4.90;99.90
57843;DHT22;43673;51.058;3.734;2023-12-04T05:57:45;4.90;99.90
57843;DHT22;43673;51.058;3.734;2023-12-04T06:00:12;4.70;99.90
57843;DHT22;43673;51.058;3.734;2023-12-04T06:02:42;4.80;99.90
57843;DHT22;43673;51.058;3.734;2023-12-04T06:05:08;4.80;99.90
57843;DHT22;43673;51.058;3.734;2023-12-04T06:07:34;5.00;99.90
57843;DHT22;43673;51.058;3.734;2023-12-04T06:10:00;4.80;99.90
57843;DHT22;43673;51.058;3.734;2023-12-04T06:12:26;4.80;99.90
57843;DHT22;43673;51.058;3.734;2023-12-04T06:14:52;4.80;99.90
57843;DHT22;43673;51.058;3.734;2023-12-04T06:17:18;5.00;99.90
57843;DHT22;43673;51.058;3.734;2023-12-04T06:19:45;4.90;99.90
57843;DHT22;43673;51.058;3.734;2023-12-04T06:22:11;4.80;99.90
57843;DHT22;43673;51.058;3.734;2023-12-04T06:24:37;4.80;99.90
57843;DHT22;43673;51.058;3.734;2023-12-04T06:27:03;4.80;99.90
57843;DHT22;43673;51.058;3.734;2023-12-04T06:29:30;4.80;99.90
57843;DHT22;43673;51.058;3.734;2023-12-04T06:31:56;4.70;99.90
57843;DHT22;43673;51.058;3.734;2023-12-04T06:34:23;4.80;99.90
57843;DHT22;43673;51.058;3.734;2023-12-04T06:36:49;4.80;99.90
57843;DHT22;43673;51.058;3.734;2023-12-04T06:39:16;4.80;99.90
57843;DHT22;43673;51.058;3.734;2023-12-04T06:41:43;4.80;99.90
57843;DHT22;43673;51.058;3.734;2023-12-04T06:44:10;4.80;99.90
57843;DHT22;43673;51.058;3.734;2023-12-04T06:46:37;4.80;99.90
57843;DHT22;43673;51.058;3.734;2023-12-04T06:49:05;4.80;99.90
57843;DHT22;43673;51.058;3.734;2023-12-04T06:51:33;4.90;99.90
57843;DHT22;43673;51.058;3.734;2023-12-04T06:54:02;4.90;99.90
57843;DHT22;43673;51.058;3.734;2023-12-04T06:56:28;4.90;99.90
57843;DHT22;43673;51.058;3.734;2023-12-04T06:58:53;4.90;99.90
57843;DHT22;43673;51.058;3.734;2023-12-04T07:01:19;4.90;99.90
57843;DHT22;43673;51.058;3.734;2023-12-04T07:03:47;4.90;99.90
57843;DHT22;43673;51.058;3.734;2023-12-04T07:06:13;4.90;99.90
57843;DHT22;43673;51.058;3.734;2023-12-04T07:08:40;4.70;99.90
57843;DHT22;43673;51.058;3.734;2023-12-04T07:11:06;4.70;99.90
57843;DHT22;43673;51.058;3.734;2023-12-04T07:13:33;4.70;99.90
57843;DHT22;43673;51.058;3.734;2023-12-04T07:15:59;4.70;99.90
57843;DHT22;43673;51.058;3.734;2023-12-04T07:18:25;4.70;99.90
57843;DHT22;43673;51.058;3.734;2023-12-04T07:20:51;4.70;99.90
57843;DHT22;43673;51.058;3.734;2023-12-04T07:23:17;4.60;99.90
57843;DHT22;43673;51.058;3.734;2023-12-04T07:25:43;4.60;99.90
57843;DHT22;43673;51.058;3.734;2023-12-04T07:28:08;4.60;99.90
57843;DHT22;43673;51.058;3.734;2023-12-04T07:30:34;4.60;99.90
57843;DHT22;43673;51.058;3.734;2023-12-04T07:33:00;4.80;99.90
57843;DHT22;43673;51.058;3.734;2023-12-04T07:35:26;4.60;99.90
57843;DHT22;43673;51.058;3.734;2023-12-04T07:37:52;4.80;99.90
57843;DHT22;43673;51.058;3.734;2023-12-04T07:40:18;4.60;99.90
57843;DHT22;43673;51.058;3.734;2023-12-04T07:42:44;4.60;99.90
57843;DHT22;43673;51.058;3.734;2023-12-04T07:45:10;4.70;99.90
57843;DHT22;43673;51.058;3.734;2023-12-04T07:47:36;4.50;99.90
57843;DHT22;43673;51.058;3.734;2023-12-04T07:50:02;4.40;99.90
57843;DHT22;43673;51.058;3.734;2023-12-04T07:52:28;4.30;99.90
57843;DHT22;43673;51.058;3.734;2023-12-04T07:54:53;4.40;99.90
57843;DHT22;43673;51.058;3.734;2023-12-04T07:57:19;4.30;99.90
57843;DHT22;43673;51.058;3.734;2023-12-04T07:59:45;4.30;99.90
57843;DHT22;43673;51.058;3.734;2023-12-04T08:02:11;4.20;99.90
57843;DHT22;43673;51.058;3.734;2023-12-04T08:04:38;4.10;99.90
57843;DHT22;43673;51.058;3.734;2023-12-04T08:07:04;4.10;99.90
57843;DHT22;43673;51.058;3.734;2023-12-04T08:09:30;4.00;99.90
57843;DHT22;43673;51.058;3.734;2023-12-04T08:11:56;4.10;99.90
57843;DHT22;43673;51.058;3.734;2023-12-04T08:14:22;4.00;99.90
57843;DHT22;43673;51.058;3.734;2023-12-04T08:16:48;4.20;99.90
57843;DHT22;43673;51.058;3.734;2023-12-04T08:19:14;4.10;99.90
57843;DHT22;43673;51.058;3.734;2023-12-04T08:21:39;4.10;99.90
57843;DHT22;43673;51.058;3.734;2023-12-04T08:24:05;4.10;99.90
57843;DHT22;43673;51.058;3.734;2023-12-04T08:26:31;4.10;99.90
57843;DHT22;43673;51.058;3.734;2023-12-04T08:28:57;4.40;99.90
57843;DHT22;43673;51.058;3.734;2023-12-04T08:31:23;4.40;99.90
57843;DHT22;43673;51.058;3.734;2023-12-04T08:33:52;4.20;99.90
57843;DHT22;43673;51.058;3.734;2023-12-04T08:36:18;4.30;99.90
57843;DHT22;43673;51.058;3.734;2023-12-04T08:38:44;4.40;99.90
57843;DHT22;43673;51.058;3.734;2023-12-04T08:41:10;4.60;99.90
57843;DHT22;43673;51.058;3.734;2023-12-04T08:43:35;4.70;99.90
57843;DHT22;43673;51.058;3.734;2023-12-04T08:46:01;4.60;99.90
57843;DHT22;43673;51.058;3.734;2023-12-04T08:48:27;4.50;99.90
57843;DHT22;43673;51.058;3.734;2023-12-04T08:50:53;4.50;99.90
57843;DHT22;43673;51.058;3.734;2023-12-04T08:53:18;4.50;99.90
57843;DHT22;43673;51.058;3.734;2023-12-04T08:55:44;4.50;99.90
57843;DHT22;43673;51.058;3.734;2023-12-04T08:58:10;4.50;99.90
57843;DHT22;43673;51.058;3.734;2023-12-04T09:00:36;4.50;99.90
57843;DHT22;43673;51.058;3.734;2023-12-04T09:03:03;4.60;99.90
57843;DHT22;43673;51.058;3.734;2023-12-04T09:05:29;4.60;99.90
57843;DHT22;43673;51.058;3.734;2023-12-04T09:07:54;4.60;99.90
57843;DHT22;43673;51.058;3.734;2023-12-04T09:10:20;4.60;99.90
57843;DHT22;43673;51.058;3.734;2023-12-04T09:12:46;4.70;99.90
57843;DHT22;43673;51.058;3.734;2023-12-04T09:15:11;4.50;99.90
57843;DHT22;43673;51.058;3.734;2023-12-04T09:17:37;4.40;99.90
57843;DHT22;43673;51.058;3.734;2023-12-04T09:20:03;4.40;99.90
57843;DHT22;43673;51.058;3.734;2023-12-04T09:22:31;4.30;99.90
57843;DHT22;43673;51.058;3.734;2023-12-04T09:24:57;4.30;99.90
57843;DHT22;43673;51.058;3.734;2023-12-04T09:27:22;4.30;99.90
57843;DHT22;43673;51.058;3.734;2023-12-04T09:32:24;4.30;99.90
57843;DHT22;43673;51.058;3.734;2023-12-04T09:34:50;4.20;99.90
57843;DHT22;43673;51.058;3.734;2023-12-04T09:37:16;4.10;99.90
57843;DHT22;43673;51.058;3.734;2023-12-04T09:39:43;3.90;99.90
57843;DHT22;43673;51.058;3.734;2023-12-04T09:42:09;4.00;99.90
57843;DHT22;43673;51.058;3.734;2023-12-04T09:44:36;4.00;99.90
57843;DHT22;43673;51.058;3.734;2023-12-04T09:47:04;4.30;99.90
57843;DHT22;43673;51.058;3.734;2023-12-04T09:49:36;4.10;99.90
57843;DHT22;43673;51.058;3.734;2023-12-04T09:52:02;4.40;99.90
57843;DHT22;43673;51.058;3.734;2023-12-04T09:54:29;4.20;99.90
57843;DHT22;43673;51.058;3.734;2023-12-04T09:56:55;4.10;99.90
57843;DHT22;43673;51.058;3.734;2023-12-04T09:59:25;4.20;99.90
57843;DHT22;43673;51.058;3.734;2023-12-04T10:01:51;4.10;99.90
57843;DHT22;43673;51.058;3.734;2023-12-04T10:04:17;4.10;99.90
57843;DHT22;43673;51.058;3.734;2023-12-04T10:06:52;3.90;99.90
57843;DHT22;43673;51.058;3.734;2023-12-04T10:30:38;3.50;99.90
57843;DHT22;43673;51.058;3.734;2023-12-04T13:00:34;5.00;99.90
57843;DHT22;43673;51.058;3.734;2023-12-04T14:57:55;4.90;99.90
57843;DHT22;43673;51.058;3.734;2023-12-04T15:08:15;5.00;99.90
57843;DHT22;43673;51.058;3.734;2023-12-04T15:11:25;4.90;99.90
57843;DHT22;43673;51.058;3.734;2023-12-04T15:40:39;5.10;99.90
57843;DHT22;43673;51.058;3.734;2023-12-04T15:43:05;5.10;99.90
57843;DHT22;43673;51.058;3.734;2023-12-04T15:45:30;5.10;99.90
57843;DHT22;43673;51.058;3.734;2023-12-04T15:47:56;5.30;99.90
57843;DHT22;43673;51.058;3.734;2023-12-04T15:50:22;5.20;99.90
57843;DHT22;43673;51.058;3.734;2023-12-04T15:53:02;5.20;99.90
57843;DHT22;43673;51.058;3.734;2023-12-04T15:55:37;4.90;99.90
57843;DHT22;43673;51.058;3.734;2023-12-04T15:58:03;4.90;99.90
57843;DHT22;43673;51.058;3.734;2023-12-04T16:03:41;4.90;99.90
57843;DHT22;43673;51.058;3.734;2023-12-04T16:06:09;5.10;99.90
57843;DHT22;43673;51.058;3.734;2023-12-04T16:08:35;5.20;99.90
57843;DHT22;43673;51.058;3.734;2023-12-04T16:11:01;5.10;99.90
57843;DHT22;43673;51.058;3.734;2023-12-04T16:13:28;5.10;99.90
57843;DHT22;43673;51.058;3.734;2023-12-04T16:15:54;5.40;99.90
57843;DHT22;43673;51.058;3.734;2023-12-04T16:18:20;5.30;99.90
57843;DHT22;43673;51.058;3.734;2023-12-04T16:20:46;5.20;99.90
57843;DHT22;43673;51.058;3.734;2023-12-04T16:23:12;5.10;99.90
57843;DHT22;43673;51.058;3.734;2023-12-04T16:25:40;5.10;99.90
57843;DHT22;43673;51.058;3.734;2023-12-04T16:28:09;4.80;99.90
57843;DHT22;43673;51.058;3.734;2023-12-04T16:30:39;5.00;99.90
57843;DHT22;43673;51.058;3.734;2023-12-04T16:33:05;5.10;99.90
57843;DHT22;43673;51.058;3.734;2023-12-04T16:35:30;5.30;99.90
57843;DHT22;43673;51.058;3.734;2023-12-04T16:38:00;5.40;99.90
57843;DHT22;43673;51.058;3.734;2023-12-04T16:40:27;5.30;99.90
57843;DHT22;43673;51.058;3.734;2023-12-04T16:42:53;5.30;99.90
57843;DHT22;43673;51.058;3.734;2023-12-04T16:45:22;5.40;99.90
57843;DHT22;43673;51.058;3.734;2023-12-04T16:47:47;5.30;99.90
57843;DHT22;43673;51.058;3.734;2023-12-04T16:50:14;5.40;99.90
57843;DHT22;43673;51.058;3.734;2023-12-04T16:52:40;5.50;99.90
57843;DHT22;43673;51.058;3.734;2023-12-04T16:55:06;5.50;99.90
57843;DHT22;43673;51.058;3.734;2023-12-04T16:57:33;5.40;99.90
57843;DHT22;43673;51.058;3.734;2023-12-04T16:59:59;5.40;99.90
57843;DHT22;43673;51.058;3.734;2023-12-04T17:02:31;5.40;99.90
57843;DHT22;43673;51.058;3.734;2023-12-04T17:04:57;5.30;99.90
57843;DHT22;43673;51.058;3.734;2023-12-04T17:07:24;5.30;99.90
57843;DHT22;43673;51.058;3.734;2023-12-04T17:09:50;5.40;99.90
57843;DHT22;43673;51.058;3.734;2023-12-04T17:12:19;5.40;99.90
57843;DHT22;43673;51.058;3.734;2023-12-04T17:14:45;5.20;99.90
57843;DHT22;43673;51.058;3.734;2023-12-04T17:17:10;5.60;99.90
57843;DHT22;43673;51.058;3.734;2023-12-04T17:19:36;5.40;99.90
57843;DHT22;43673;51.058;3.734;2023-12-04T17:22:02;5.50;99.90
57843;DHT22;43673;51.058;3.734;2023-12-04T17:24:28;5.30;99.90
57843;DHT22;43673;51.058;3.734;2023-12-04T17:26:53;5.50;99.90
57843;DHT22;43673;51.058;3.734;2023-12-04T17:29:19;5.30;99.90
57843;DHT22;43673;51.058;3.734;2023-12-04T17:31:45;5.30;99.90
57843;DHT22;43673;51.058;3.734;2023-12-04T17:34:51;5.30;99.90
57843;DHT22;43673;51.058;3.734;2023-12-04T17:37:28;5.50;99.90
57843;DHT22;43673;51.058;3.734;2023-12-04T17:39:54;5.50;99.90
57843;DHT22;43673;51.058;3.734;2023-12-04T17:42:20;5.40;99.90
57843;DHT22;43673;51.058;3.734;2023-12-04T17:44:46;5.50;99.90
57843;DHT22;43673;51.058;3.734;2023-12-04T17:47:12;5.40;99.90
57843;DHT22;43673;51.058;3.734;2023-12-04T17:49:37;5.40;99.90
57843;DHT22;43673;51.058;3.734;2023-12-04T17:52:03;5.30;99.90
57843;DHT22;43673;51.058;3.734;2023-12-04T17:54:30;5.30;99.90
57843;DHT22;43673;51.058;3.734;2023-12-04T17:56:56;5.40;99.90
57843;DHT22;43673;51.058;3.734;2023-12-04T17:59:24;5.40;99.90
57843;DHT22;43673;51.058;3.734;2023-12-04T18:01:50;5.40;99.90
57843;DHT22;43673;51.058;3.734;2023-12-04T18:04:16;5.40;99.90
57843;DHT22;43673;51.058;3.734;2023-12-04T18:07:06;5.40;99.90
57843;DHT22;43673;51.058;3.734;2023-12-04T18:10:07;5.70;99.90
57843;DHT22;43673;51.058;3.734;2023-12-04T18:12:33;5.60;99.90
57843;DHT22;43673;51.058;3.734;2023-12-04T18:14:58;5.60;99.90
57843;DHT22;43673;51.058;3.734;2023-12-04T18:17:24;5.60;99.90
57843;DHT22;43673;51.058;3.734;2023-12-04T18:19:50;5.70;99.90
57843;DHT22;43673;51.058;3.734;2023-12-04T18:22:19;5.70;99.90
57843;DHT22;43673;51.058;3.734;2023-12-04T18:24:45;5.60;99.90
57843;DHT22;43673;51.058;3.734;2023-12-04T18:27:11;5.60;99.90
57843;DHT22;43673;51.058;3.734;2023-12-04T18:29:43;5.70;99.90
57843;DHT22;43673;51.058;3.734;2023-12-04T18:32:12;5.50;99.90
57843;DHT22;43673;51.058;3.734;2023-12-04T18:34:38;5.60;99.90
57843;DHT22;43673;51.058;3.734;2023-12-04T18:37:23;5.60;99.90
57843;DHT22;43673;51.058;3.734;2023-12-04T18:39:55;5.60;99.90
57843;DHT22;43673;51.058;3.734;2023-12-04T18:42:23;5.50;99.90
57843;DHT22;43673;51.058;3.734;2023-12-04T18:44:49;5.60;99.90
57843;DHT22;43673;51.058;3.734;2023-12-04T18:47:17;5.60;99.90
57843;DHT22;43673;51.058;3.734;2023-12-04T18:49:48;5.60;99.90
57843;DHT22;43673;51.058;3.734;2023-12-04T18:52:14;5.70;99.90
57843;DHT22;43673;51.058;3.734;2023-12-04T18:54:40;5.70;99.90
57843;DHT22;43673;51.058;3.734;2023-12-04T18:57:06;5.80;99.90
57843;DHT22;43673;51.058;3.734;2023-12-04T18:59:32;5.60;99.90
57843;DHT22;43673;51.058;3.734;2023-12-04T19:01:58;5.70;99.90
57843;DHT22;43673;51.058;3.734;2023-12-04T19:04:23;5.70;99.90
57843;DHT22;43673;51.058;3.734;2023-12-04T19:06:49;5.70;99.90
57843;DHT22;43673;51.058;3.734;2023-12-04T19:09:15;5.80;99.90
57843;DHT22;43673;51.058;3.734;2023-12-04T19:11:41;5.60;99.90
57843;DHT22;43673;51.058;3.734;2023-12-04T19:14:06;5.60;99.90
57843;DHT22;43673;51.058;3.734;2023-12-04T19:16:32;5.80;99.90
57843;DHT22;43673;51.058;3.734;2023-12-04T19:18:58;5.90;99.90
57843;DHT22;43673;51.058;3.734;2023-12-04T19:21:23;5.90;99.90
57843;DHT22;43673;51.058;3.734;2023-12-04T19:23:52;5.90;99.90
57843;DHT22;43673;51.058;3.734;2023-12-04T19:26:17;5.90;99.90
57843;DHT22;43673;51.058;3.734;2023-12-04T19:28:43;5.90;99.90
57843;DHT22;43673;51.058;3.734;2023-12-04T19:31:09;6.00;99.90
57843;DHT22;43673;51.058;3.734;2023-12-04T19:33:35;6.10;99.90
57843;DHT22;43673;51.058;3.734;2023-12-04T19:36:05;6.30;99.90
57843;DHT22;43673;51.058;3.734;2023-12-04T19:38:32;5.90;99.90
57843;DHT22;43673;51.058;3.734;2023-12-04T19:40:58;6.00;99.90
57843;DHT22;43673;51.058;3.734;2023-12-04T19:43:23;5.90;99.90
57843;DHT22;43673;51.058;3.734;2023-12-04T19:45:49;6.00;99.90
57843;DHT22;43673;51.058;3.734;2023-12-04T19:48:15;6.00;99.90
57843;DHT22;43673;51.058;3.734;2023-12-04T19:50:41;6.10;99.90
57843;DHT22;43673;51.058;3.734;2023-12-04T19:53:07;6.10;99.90
57843;DHT22;43673;51.058;3.734;2023-12-04T19:55:33;6.10;99.90
57843;DHT22;43673;51.058;3.734;2023-12-04T19:57:59;6.10;99.90
57843;DHT22;43673;51.058;3.734;2023-12-04T20:00:29;6.30;99.90
57843;DHT22;43673;51.058;3.734;2023-12-04T20:02:57;6.10;99.90
57843;DHT22;43673;51.058;3.734;2023-12-04T20:05:25;6.00;99.90
57843;DHT22;43673;51.058;3.734;2023-12-04T20:07:51;6.10;99.90
57843;DHT22;43673;51.058;3.734;2023-12-04T20:10:17;6.00;99.90
57843;DHT22;43673;51.058;3.734;2023-12-04T20:12:43;6.00;99.90
57843;DHT22;43673;51.058;3.734;2023-12-04T20:15:09;6.00;99.90
57843;DHT22;43673;51.058;3.734;2023-12-04T20:17:37;6.00;99.90
57843;DHT22;43673;51.058;3.734;2023-12-04T20:20:03;6.10;99.90
57843;DHT22;43673;51.058;3.734;2023-12-04T20:22:29;6.10;99.90
57843;DHT22;43673;51.058;3.734;2023-12-04T20:24:55;6.10;99.90
57843;DHT22;43673;51.058;3.734;2023-12-04T20:27:21;6.10;99.90
57843;DHT22;43673;51.058;3.734;2023-12-04T20:29:46;6.20;99.90
57843;DHT22;43673;51.058;3.734;2023-12-04T20:32:12;6.40;99.90
57843;DHT22;43673;51.058;3.734;2023-12-04T20:34:38;6.20;99.90
57843;DHT22;43673;51.058;3.734;2023-12-04T20:37:05;6.20;99.90
57843;DHT22;43673;51.058;3.734;2023-12-04T20:39:31;6.20;99.90
57843;DHT22;43673;51.058;3.734;2023-12-04T20:41:57;6.20;99.90
57843;DHT22;43673;51.058;3.734;2023-12-04T20:44:23;6.20;99.90
57843;DHT22;43673;51.058;3.734;2023-12-04T20:46:49;6.40;99.90
57843;DHT22;43673;51.058;3.734;2023-12-04T20:49:17;6.30;99.90
57843;DHT22;43673;51.058;3.734;2023-12-04T20:51:45;6.40;99.90
57843;DHT22;43673;51.058;3.734;2023-12-04T20:54:11;6.50;99.90
57843;DHT22;43673;51.058;3.734;2023-12-04T20:56:37;6.40;99.90
57843;DHT22;43673;51.058;3.734;2023-12-04T20:59:02;6.50;99.90
57843;DHT22;43673;51.058;3.734;2023-12-04T21:01:28;6.50;99.90
57843;DHT22;43673;51.058;3.734;2023-12-04T21:03:54;6.30;99.90
57843;DHT22;43673;51.058;3.734;2023-12-04T21:06:22;6.40;99.90
57843;DHT22;43673;51.058;3.734;2023-12-04T21:08:48;6.10;99.90